sensor_id;sensor_type;location;lat;lon;timestamp;temperature;humidity
20839;DHT22;10580;51.092;6.828;2023-07-13T00:01:12;16.20;99.90
20839;DHT22;10580;51.092;6.828;2023-07-13T00:03:38;16.20;99.90
20839;DHT22;10580;51.092;6.828;2023-07-13T00:06:06;16.20;99.90
20839;DHT22;10580;51.092;6.828;2023-07-13T00:08:32;16.20;99.90
20839;DHT22;10580;51.092;6.828;2023-07-13T00:10:59;16.10;99.90
20839;DHT22;10580;51.092;6.828;2023-07-13T00:13:25;16.10;99.90
20839;DHT22;10580;51.092;6.828;2023-07-13T00:15:51;16.10;99.90
20839;DHT22;10580;51.092;6.828;2023-07-13T00:18:17;16.10;99.90
20839;DHT22;10580;51.092;6.828;2023-07-13T00:20:42;16.10;99.90
20839;DHT22;10580;51.092;6.828;2023-07-13T00:23:08;16.10;99.90
20839;DHT22;10580;51.092;6.828;2023-07-13T00:25:34;16.10;99.90
20839;DHT22;10580;51.092;6.828;2023-07-13T00:28:00;16.10;99.90
20839;DHT22;10580;51.092;6.828;2023-07-13T00:30:26;16.10;99.90
20839;DHT22;10580;51.092;6.828;2023-07-13T00:32:51;16.00;99.90
20839;DHT22;10580;51.092;6.828;2023-07-13T00:35:17;16.00;1.00
20839;DHT22;10580;51.092;6.828;2023-07-13T00:37:43;16.00;1.00
20839;DHT22;10580;51.092;6.828;2023-07-13T00:40:13;16.00;99.90
20839;DHT22;10580;51.092;6.828;2023-07-13T00:42:40;16.10;99.90
20839;DHT22;10580;51.092;6.828;2023-07-13T00:47:52;16.00;99.90
20839;DHT22;10580;51.092;6.828;2023-07-13T00:50:18;16.00;99.90
20839;DHT22;10580;51.092;6.828;2023-07-13T00:52:49;16.00;1.00
20839;DHT22;10580;51.092;6.828;2023-07-13T00:55:17;16.00;1.00
20839;DHT22;10580;51.092;6.828;2023-07-13T00:57:44;15.90;1.00
20839;DHT22;10580;51.092;6.828;2023-07-13T01:00:10;15.90;1.00
20839;DHT22;10580;51.092;6.828;2023-07-13T01:02:42;15.90;1.00
20839;DHT22;10580;51.092;6.828;2023-07-13T01:05:14;15.90;1.00
20839;DHT22;10580;51.092;6.828;2023-07-13T01:07:40;15.90;1.00
20839;DHT22;10580;51.092;6.828;2023-07-13T01:10:07;15.90;1.00
20839;DHT22;10580;51.092;6.828;2023-07-13T01:12:33;15.80;1.00
20839;DHT22;10580;51.092;6.828;2023-07-13T01:15:01;15.80;1.00
20839;DHT22;10580;51.092;6.828;2023-07-13T01:17:28;15.80;1.00
20839;DHT22;10580;51.092;6.828;2023-07-13T01:19:54;15.80;1.00
20839;DHT22;10580;51.092;6.828;2023-07-13T01:22:20;15.80;1.00
20839;DHT22;10580;51.092;6.828;2023-07-13T01:24:50;15.80;1.00
20839;DHT22;10580;51.092;6.828;2023-07-13T01:27:20;15.80;1.00
20839;DHT22;10580;51.092;6.828;2023-07-13T01:29:46;15.80;1.00
20839;DHT22;10580;51.092;6.828;2023-07-13T01:32:16;15.70;1.00
20839;DHT22;10580;51.092;6.828;2023-07-13T01:34:41;15.70;1.00
20839;DHT22;10580;51.092;6.828;2023-07-13T01:37:11;15.70;1.00
20839;DHT22;10580;51.092;6.828;2023-07-13T01:39:39;15.60;1.00
20839;DHT22;10580;51.092;6.828;2023-07-13T01:42:05;15.60;1.00
20839;DHT22;10580;51.092;6.828;2023-07-13T01:44:31;15.50;1.00
20839;DHT22;10580;51.092;6.828;2023-07-13T01:46:57;15.40;1.00
20839;DHT22;10580;51.092;6.828;2023-07-13T01:49:23;15.40;1.00
20839;DHT22;10580;51.092;6.828;2023-07-13T01:51:49;15.30;1.00
20839;DHT22;10580;51.092;6.828;2023-07-13T01:54:14;15.30;1.00
20839;DHT22;10580;51.092;6.828;2023-07-13T01:56:40;15.30;1.00
20839;DHT22;10580;51.092;6.828;2023-07-13T01:59:07;15.30;1.00
20839;DHT22;10580;51.092;6.828;2023-07-13T02:01:33;15.30;1.00
20839;DHT22;10580;51.092;6.828;2023-07-13T02:03:58;15.30;1.00
20839;DHT22;10580;51.092;6.828;2023-07-13T02:06:24;15.30;1.00
20839;DHT22;10580;51.092;6.828;2023-07-13T02:08:49;15.30;1.00
20839;DHT22;10580;51.092;6.828;2023-07-13T02:11:15;15.30;1.00
20839;DHT22;10580;51.092;6.828;2023-07-13T02:13:40;15.30;1.00
20839;DHT22;10580;51.092;6.828;2023-07-13T02:16:09;15.30;1.00
20839;DHT22;10580;51.092;6.828;2023-07-13T02:18:34;15.30;1.00
20839;DHT22;10580;51.092;6.828;2023-07-13T02:21:00;15.20;1.00
20839;DHT22;10580;51.092;6.828;2023-07-13T02:23:25;15.20;1.00
20839;DHT22;10580;51.092;6.828;2023-07-13T02:25:59;15.20;5.40
20839;DHT22;10580;51.092;6.828;2023-07-13T02:28:25;15.20;31.80
20839;DHT22;10580;51.092;6.828;2023-07-13T02:30:51;15.20;99.90
20839;DHT22;10580;51.092;6.828;2023-07-13T02:33:17;15.20;99.90
20839;DHT22;10580;51.092;6.828;2023-07-13T02:35:45;15.20;99.90
20839;DHT22;10580;51.092;6.828;2023-07-13T02:38:10;15.10;99.90
20839;DHT22;10580;51.092;6.828;2023-07-13T02:40:36;15.10;99.90
20839;DHT22;10580;51.092;6.828;2023-07-13T02:43:02;15.10;99.90
20839;DHT22;10580;51.092;6.828;2023-07-13T02:45:28;15.10;1.00
20839;DHT22;10580;51.092;6.828;2023-07-13T02:47:54;15.00;1.00
20839;DHT22;10580;51.092;6.828;2023-07-13T02:50:20;15.00;1.00
20839;DHT22;10580;51.092;6.828;2023-07-13T02:52:45;15.00;1.00
20839;DHT22;10580;51.092;6.828;2023-07-13T02:55:11;15.10;1.00
20839;DHT22;10580;51.092;6.828;2023-07-13T02:57:37;15.10;1.00
20839;DHT22;10580;51.092;6.828;2023-07-13T03:00:04;15.00;1.00
20839;DHT22;10580;51.092;6.828;2023-07-13T03:02:33;15.00;1.00
20839;DHT22;10580;51.092;6.828;2023-07-13T03:04:59;15.00;1.00
20839;DHT22;10580;51.092;6.828;2023-07-13T03:07:28;15.00;1.00
20839;DHT22;10580;51.092;6.828;2023-07-13T03:09:55;15.00;1.00
20839;DHT22;10580;51.092;6.828;2023-07-13T03:12:21;15.00;1.00
20839;DHT22;10580;51.092;6.828;2023-07-13T03:14:47;15.00;1.00
20839;DHT22;10580;51.092;6.828;2023-07-13T03:17:15;15.00;1.00
20839;DHT22;10580;51.092;6.828;2023-07-13T03:19:40;15.00;1.00
20839;DHT22;10580;51.092;6.828;2023-07-13T03:22:06;14.90;1.00
20839;DHT22;10580;51.092;6.828;2023-07-13T03:24:35;14.90;1.00
20839;DHT22;10580;51.092;6.828;2023-07-13T03:27:05;14.90;1.00
20839;DHT22;10580;51.092;6.828;2023-07-13T03:29:30;14.90;1.00
20839;DHT22;10580;51.092;6.828;2023-07-13T03:31:56;14.90;1.00
20839;DHT22;10580;51.092;6.828;2023-07-13T03:34:21;14.90;1.00
20839;DHT22;10580;51.092;6.828;2023-07-13T03:36:47;14.90;1.00
20839;DHT22;10580;51.092;6.828;2023-07-13T03:39:13;14.90;1.00
20839;DHT22;10580;51.092;6.828;2023-07-13T03:41:38;14.90;1.00
20839;DHT22;10580;51.092;6.828;2023-07-13T03:44:04;14.90;1.00
20839;DHT22;10580;51.092;6.828;2023-07-13T03:46:30;14.90;1.00
20839;DHT22;10580;51.092;6.828;2023-07-13T03:48:57;14.90;1.00
20839;DHT22;10580;51.092;6.828;2023-07-13T03:51:22;14.90;1.00
20839;DHT22;10580;51.092;6.828;2023-07-13T03:53:49;14.90;1.00
20839;DHT22;10580;51.092;6.828;2023-07-13T03:56:16;14.90;1.00
20839;DHT22;10580;51.092;6.828;2023-07-13T03:58:45;14.90;1.00
20839;DHT22;10580;51.092;6.828;2023-07-13T04:01:12;14.90;1.00
20839;DHT22;10580;51.092;6.828;2023-07-13T04:03:38;15.00;1.00
20839;DHT22;10580;51.092;6.828;2023-07-13T04:06:06;15.00;1.00
20839;DHT22;10580;51.092;6.828;2023-07-13T04:08:34;15.00;1.00
20839;DHT22;10580;51.092;6.828;2023-07-13T04:11:00;15.00;1.00
20839;DHT22;10580;51.092;6.828;2023-07-13T04:13:27;15.10;1.00
20839;DHT22;10580;51.092;6.828;2023-07-13T04:15:53;15.10;99.90
20839;DHT22;10580;51.092;6.828;2023-07-13T04:18:19;15.20;1.00
20839;DHT22;10580;51.092;6.828;2023-07-13T04:20:49;15.20;1.00
20839;DHT22;10580;51.092;6.828;2023-07-13T04:23:16;15.20;1.00
20839;DHT22;10580;51.092;6.828;2023-07-13T04:25:46;15.30;1.00
20839;DHT22;10580;51.092;6.828;2023-07-13T04:28:12;15.30;1.00
20839;DHT22;10580;51.092;6.828;2023-07-13T04:30:38;15.40;1.00
20839;DHT22;10580;51.092;6.828;2023-07-13T04:33:03;15.40;1.00
20839;DHT22;10580;51.092;6.828;2023-07-13T04:35:29;15.50;1.00
20839;DHT22;10580;51.092;6.828;2023-07-13T04:37:56;15.60;1.00
20839;DHT22;10580;51.092;6.828;2023-07-13T04:40:21;15.70;1.00
20839;DHT22;10580;51.092;6.828;2023-07-13T04:42:47;15.80;1.00
20839;DHT22;10580;51.092;6.828;2023-07-13T04:45:14;15.80;99.90
20839;DHT22;10580;51.092;6.828;2023-07-13T04:47:40;16.00;99.90
20839;DHT22;10580;51.092;6.828;2023-07-13T04:50:07;16.10;99.90
20839;DHT22;10580;51.092;6.828;2023-07-13T04:52:33;16.20;99.90
20839;DHT22;10580;51.092;6.828;2023-07-13T04:54:59;16.40;99.90
20839;DHT22;10580;51.092;6.828;2023-07-13T04:57:26;16.60;99.90
20839;DHT22;10580;51.092;6.828;2023-07-13T04:59:52;16.60;50.80
20839;DHT22;10580;51.092;6.828;2023-07-13T05:02:18;16.80;1.00
20839;DHT22;10580;51.092;6.828;2023-07-13T05:04:46;16.80;1.00
20839;DHT22;10580;51.092;6.828;2023-07-13T05:07:12;16.80;1.00
20839;DHT22;10580;51.092;6.828;2023-07-13T05:09:38;17.00;1.00
20839;DHT22;10580;51.092;6.828;2023-07-13T05:12:06;17.10;1.00
20839;DHT22;10580;51.092;6.828;2023-07-13T05:14:32;17.30;1.00
20839;DHT22;10580;51.092;6.828;2023-07-13T05:16:58;17.60;1.00
20839;DHT22;10580;51.092;6.828;2023-07-13T05:19:23;17.80;1.00
20839;DHT22;10580;51.092;6.828;2023-07-13T05:21:49;18.10;1.00
20839;DHT22;10580;51.092;6.828;2023-07-13T05:24:14;18.30;1.00
20839;DHT22;10580;51.092;6.828;2023-07-13T05:26:40;18.30;1.00
20839;DHT22;10580;51.092;6.828;2023-07-13T05:29:11;18.30;1.00
20839;DHT22;10580;51.092;6.828;2023-07-13T05:32:26;18.80;1.00
20839;DHT22;10580;51.092;6.828;2023-07-13T05:34:51;19.30;1.00
20839;DHT22;10580;51.092;6.828;2023-07-13T05:37:17;19.60;1.00
20839;DHT22;10580;51.092;6.828;2023-07-13T05:39:43;19.70;1.00
20839;DHT22;10580;51.092;6.828;2023-07-13T05:42:11;20.00;1.00
20839;DHT22;10580;51.092;6.828;2023-07-13T05:44:36;20.60;1.00
20839;DHT22;10580;51.092;6.828;2023-07-13T05:47:02;20.30;1.00
20839;DHT22;10580;51.092;6.828;2023-07-13T05:49:29;20.10;1.00
20839;DHT22;10580;51.092;6.828;2023-07-13T05:51:55;20.10;1.00
20839;DHT22;10580;51.092;6.828;2023-07-13T05:54:21;19.90;1.00
20839;DHT22;10580;51.092;6.828;2023-07-13T05:56:47;20.30;1.00
20839;DHT22;10580;51.092;6.828;2023-07-13T05:59:12;20.50;1.00
20839;DHT22;10580;51.092;6.828;2023-07-13T06:01:38;20.60;1.00
20839;DHT22;10580;51.092;6.828;2023-07-13T06:04:03;20.40;1.00
20839;DHT22;10580;51.092;6.828;2023-07-13T06:06:30;20.90;1.00
20839;DHT22;10580;51.092;6.828;2023-07-13T06:08:55;20.40;1.00
20839;DHT22;10580;51.092;6.828;2023-07-13T06:11:23;19.80;1.00
20839;DHT22;10580;51.092;6.828;2023-07-13T06:13:49;19.30;1.00
20839;DHT22;10580;51.092;6.828;2023-07-13T06:16:15;19.10;1.00
20839;DHT22;10580;51.092;6.828;2023-07-13T06:18:41;19.10;1.00
20839;DHT22;10580;51.092;6.828;2023-07-13T06:21:14;19.40;1.00
20839;DHT22;10580;51.092;6.828;2023-07-13T06:23:40;19.90;1.00
20839;DHT22;10580;51.092;6.828;2023-07-13T06:26:07;20.50;1.00
20839;DHT22;10580;51.092;6.828;2023-07-13T06:28:34;21.30;1.00
20839;DHT22;10580;51.092;6.828;2023-07-13T06:31:01;21.70;1.00
20839;DHT22;10580;51.092;6.828;2023-07-13T06:33:26;22.00;1.00
20839;DHT22;10580;51.092;6.828;2023-07-13T06:35:52;22.00;1.00
20839;DHT22;10580;51.092;6.828;2023-07-13T06:38:22;22.00;1.00
20839;DHT22;10580;51.092;6.828;2023-07-13T06:40:47;22.20;1.00
20839;DHT22;10580;51.092;6.828;2023-07-13T06:43:13;22.50;1.00
20839;DHT22;10580;51.092;6.828;2023-07-13T06:45:45;21.80;1.00
20839;DHT22;10580;51.092;6.828;2023-07-13T06:48:15;21.60;1.00
20839;DHT22;10580;51.092;6.828;2023-07-13T06:50:42;21.90;1.00
20839;DHT22;10580;51.092;6.828;2023-07-13T06:53:10;21.90;1.00
20839;DHT22;10580;51.092;6.828;2023-07-13T06:55:36;21.60;1.00
20839;DHT22;10580;51.092;6.828;2023-07-13T06:58:02;21.40;1.00
20839;DHT22;10580;51.092;6.828;2023-07-13T07:00:28;21.40;1.00
20839;DHT22;10580;51.092;6.828;2023-07-13T07:02:53;21.30;1.00
20839;DHT22;10580;51.092;6.828;2023-07-13T07:05:22;20.80;1.00
20839;DHT22;10580;51.092;6.828;2023-07-13T07:07:49;21.00;1.00
20839;DHT22;10580;51.092;6.828;2023-07-13T07:10:15;20.80;1.00
20839;DHT22;10580;51.092;6.828;2023-07-13T07:12:41;20.60;1.00
20839;DHT22;10580;51.092;6.828;2023-07-13T07:15:07;20.60;1.00
20839;DHT22;10580;51.092;6.828;2023-07-13T07:17:32;20.80;1.00
20839;DHT22;10580;51.092;6.828;2023-07-13T07:19:58;20.10;1.00
20839;DHT22;10580;51.092;6.828;2023-07-13T07:22:23;20.10;1.00
20839;DHT22;10580;51.092;6.828;2023-07-13T07:24:52;20.20;1.00
20839;DHT22;10580;51.092;6.828;2023-07-13T07:27:18;20.30;1.00
20839;DHT22;10580;51.092;6.828;2023-07-13T07:29:43;20.30;1.00
20839;DHT22;10580;51.092;6.828;2023-07-13T07:32:09;20.20;1.00
20839;DHT22;10580;51.092;6.828;2023-07-13T07:34:35;19.90;1.00
20839;DHT22;10580;51.092;6.828;2023-07-13T07:37:01;19.90;1.00
20839;DHT22;10580;51.092;6.828;2023-07-13T07:39:27;19.80;1.00
20839;DHT22;10580;51.092;6.828;2023-07-13T07:41:52;19.90;1.00
20839;DHT22;10580;51.092;6.828;2023-07-13T07:44:18;20.20;1.00
20839;DHT22;10580;51.092;6.828;2023-07-13T07:46:44;20.30;1.00
20839;DHT22;10580;51.092;6.828;2023-07-13T07:49:09;20.30;1.00
20839;DHT22;10580;51.092;6.828;2023-07-13T07:51:36;20.40;1.00
20839;DHT22;10580;51.092;6.828;2023-07-13T07:54:01;20.60;1.00
20839;DHT22;10580;51.092;6.828;2023-07-13T07:56:27;20.90;1.00
20839;DHT22;10580;51.092;6.828;2023-07-13T07:58:52;20.60;1.00
20839;DHT22;10580;51.092;6.828;2023-07-13T08:01:18;20.90;1.00
20839;DHT22;10580;51.092;6.828;2023-07-13T08:03:43;20.60;1.00
20839;DHT22;10580;51.092;6.828;2023-07-13T08:06:09;20.90;1.00
20839;DHT22;10580;51.092;6.828;2023-07-13T08:08:35;20.80;1.00
20839;DHT22;10580;51.092;6.828;2023-07-13T08:11:05;21.00;1.00
20839;DHT22;10580;51.092;6.828;2023-07-13T08:13:31;21.00;1.00
20839;DHT22;10580;51.092;6.828;2023-07-13T08:15:56;20.90;1.00
20839;DHT22;10580;51.092;6.828;2023-07-13T08:18:22;21.30;1.00
20839;DHT22;10580;51.092;6.828;2023-07-13T08:20:48;21.10;1.00
20839;DHT22;10580;51.092;6.828;2023-07-13T08:23:13;21.10;1.00
20839;DHT22;10580;51.092;6.828;2023-07-13T08:25:39;21.00;1.00
20839;DHT22;10580;51.092;6.828;2023-07-13T08:28:04;21.00;1.00
20839;DHT22;10580;51.092;6.828;2023-07-13T08:30:30;21.30;1.00
20839;DHT22;10580;51.092;6.828;2023-07-13T08:32:55;21.50;1.00
20839;DHT22;10580;51.092;6.828;2023-07-13T08:35:21;21.50;1.00
20839;DHT22;10580;51.092;6.828;2023-07-13T08:37:47;21.30;1.00
20839;DHT22;10580;51.092;6.828;2023-07-13T08:40:13;21.10;1.00
20839;DHT22;10580;51.092;6.828;2023-07-13T08:42:46;21.20;1.00
20839;DHT22;10580;51.092;6.828;2023-07-13T08:46:07;21.10;1.00
20839;DHT22;10580;51.092;6.828;2023-07-13T08:48:21;21.20;1.00
20839;DHT22;10580;51.092;6.828;2023-07-13T08:50:57;21.10;1.00
20839;DHT22;10580;51.092;6.828;2023-07-13T08:53:24;21.20;1.00
20839;DHT22;10580;51.092;6.828;2023-07-13T08:55:57;21.20;1.00
20839;DHT22;10580;51.092;6.828;2023-07-13T08:58:23;21.20;1.00
20839;DHT22;10580;51.092;6.828;2023-07-13T09:01:40;21.30;1.00
20839;DHT22;10580;51.092;6.828;2023-07-13T09:04:12;21.50;1.00
20839;DHT22;10580;51.092;6.828;2023-07-13T09:06:55;21.30;1.00
20839;DHT22;10580;51.092;6.828;2023-07-13T09:12:16;21.20;1.00
20839;DHT22;10580;51.092;6.828;2023-07-13T09:14:45;21.10;1.00
20839;DHT22;10580;51.092;6.828;2023-07-13T09:17:18;21.20;1.00
20839;DHT22;10580;51.092;6.828;2023-07-13T09:19:48;21.40;1.00
20839;DHT22;10580;51.092;6.828;2023-07-13T09:22:19;21.70;1.00
20839;DHT22;10580;51.092;6.828;2023-07-13T09:27:24;22.00;1.00
20839;DHT22;10580;51.092;6.828;2023-07-13T09:32:41;22.40;1.00
20839;DHT22;10580;51.092;6.828;2023-07-13T09:35:18;22.40;1.00
20839;DHT22;10580;51.092;6.828;2023-07-13T09:37:45;22.50;1.00
20839;DHT22;10580;51.092;6.828;2023-07-13T09:40:20;22.60;1.00
20839;DHT22;10580;51.092;6.828;2023-07-13T09:42:48;22.30;1.00
20839;DHT22;10580;51.092;6.828;2023-07-13T09:45:27;22.20;1.00
20839;DHT22;10580;51.092;6.828;2023-07-13T09:47:59;22.30;1.00
20839;DHT22;10580;51.092;6.828;2023-07-13T09:50:28;22.40;1.00
20839;DHT22;10580;51.092;6.828;2023-07-13T09:52:54;22.40;1.00
20839;DHT22;10580;51.092;6.828;2023-07-13T09:55:32;22.00;1.00
20839;DHT22;10580;51.092;6.828;2023-07-13T09:58:09;21.90;1.00
20839;DHT22;10580;51.092;6.828;2023-07-13T10:00:36;21.70;1.00
20839;DHT22;10580;51.092;6.828;2023-07-13T10:05:43;21.40;1.00
20839;DHT22;10580;51.092;6.828;2023-07-13T10:08:17;21.30;1.00
20839;DHT22;10580;51.092;6.828;2023-07-13T10:10:44;21.40;1.00
20839;DHT22;10580;51.092;6.828;2023-07-13T10:13:28;21.60;1.00
20839;DHT22;10580;51.092;6.828;2023-07-13T10:15:55;22.00;1.00
20839;DHT22;10580;51.092;6.828;2023-07-13T10:18:23;22.20;1.00
20839;DHT22;10580;51.092;6.828;2023-07-13T10:20:54;22.10;1.00
20839;DHT22;10580;51.092;6.828;2023-07-13T10:23:27;22.40;1.00
20839;DHT22;10580;51.092;6.828;2023-07-13T10:25:57;22.70;1.00
20839;DHT22;10580;51.092;6.828;2023-07-13T10:28:36;23.00;1.00
20839;DHT22;10580;51.092;6.828;2023-07-13T10:31:05;22.70;1.00
20839;DHT22;10580;51.092;6.828;2023-07-13T10:33:35;22.60;1.00
20839;DHT22;10580;51.092;6.828;2023-07-13T10:36:40;22.50;1.00
20839;DHT22;10580;51.092;6.828;2023-07-13T10:39:06;22.60;1.00
20839;DHT22;10580;51.092;6.828;2023-07-13T10:41:37;22.90;1.00
20839;DHT22;10580;51.092;6.828;2023-07-13T10:44:04;22.90;1.00
20839;DHT22;10580;51.092;6.828;2023-07-13T10:46:35;22.90;1.00
20839;DHT22;10580;51.092;6.828;2023-07-13T10:49:04;23.00;1.00
20839;DHT22;10580;51.092;6.828;2023-07-13T10:51:30;23.00;1.00
20839;DHT22;10580;51.092;6.828;2023-07-13T10:54:26;23.10;1.00
20839;DHT22;10580;51.092;6.828;2023-07-13T10:57:19;23.10;1.00
20839;DHT22;10580;51.092;6.828;2023-07-13T11:00:14;23.20;1.00
20839;DHT22;10580;51.092;6.828;2023-07-13T11:02:40;23.20;1.00
20839;DHT22;10580;51.092;6.828;2023-07-13T11:08:02;22.70;1.00
20839;DHT22;10580;51.092;6.828;2023-07-13T11:10:52;22.60;1.00
20839;DHT22;10580;51.092;6.828;2023-07-13T11:18:39;22.50;1.00
20839;DHT22;10580;51.092;6.828;2023-07-13T11:21:19;22.50;1.00
20839;DHT22;10580;51.092;6.828;2023-07-13T11:23:53;22.70;1.00
20839;DHT22;10580;51.092;6.828;2023-07-13T11:31:59;23.20;1.00
20839;DHT22;10580;51.092;6.828;2023-07-13T11:34:36;23.20;1.00
20839;DHT22;10580;51.092;6.828;2023-07-13T11:37:03;23.00;1.00
20839;DHT22;10580;51.092;6.828;2023-07-13T11:39:34;22.80;1.00
20839;DHT22;10580;51.092;6.828;2023-07-13T11:42:05;22.60;1.00
20839;DHT22;10580;51.092;6.828;2023-07-13T11:44:33;22.40;99.90
20839;DHT22;10580;51.092;6.828;2023-07-13T11:47:08;22.50;99.90
20839;DHT22;10580;51.092;6.828;2023-07-13T11:49:42;22.50;99.90
20839;DHT22;10580;51.092;6.828;2023-07-13T11:52:18;22.70;1.00
20839;DHT22;10580;51.092;6.828;2023-07-13T11:54:52;22.70;1.00
20839;DHT22;10580;51.092;6.828;2023-07-13T11:57:44;22.60;99.90
20839;DHT22;10580;51.092;6.828;2023-07-13T12:00:13;23.00;1.00
20839;DHT22;10580;51.092;6.828;2023-07-13T12:02:49;23.80;1.00
20839;DHT22;10580;51.092;6.828;2023-07-13T12:05:17;24.20;1.00
20839;DHT22;10580;51.092;6.828;2023-07-13T12:07:43;24.00;1.00
20839;DHT22;10580;51.092;6.828;2023-07-13T12:10:25;23.90;1.00
20839;DHT22;10580;51.092;6.828;2023-07-13T12:13:00;24.30;1.00
20839;DHT22;10580;51.092;6.828;2023-07-13T12:15:42;25.10;1.00
20839;DHT22;10580;51.092;6.828;2023-07-13T12:18:18;25.30;1.00
20839;DHT22;10580;51.092;6.828;2023-07-13T12:20:45;25.40;99.90
20839;DHT22;10580;51.092;6.828;2023-07-13T12:23:31;25.40;99.90
20839;DHT22;10580;51.092;6.828;2023-07-13T12:25:58;25.30;99.90
20839;DHT22;10580;51.092;6.828;2023-07-13T12:34:05;25.30;99.90
20839;DHT22;10580;51.092;6.828;2023-07-13T12:36:34;24.50;99.90
20839;DHT22;10580;51.092;6.828;2023-07-13T12:39:13;24.60;99.90
20839;DHT22;10580;51.092;6.828;2023-07-13T12:41:39;25.20;99.90
20839;DHT22;10580;51.092;6.828;2023-07-13T12:44:31;25.40;99.90
20839;DHT22;10580;51.092;6.828;2023-07-13T12:47:09;25.30;99.90
20839;DHT22;10580;51.092;6.828;2023-07-13T12:49:41;25.00;99.90
20839;DHT22;10580;51.092;6.828;2023-07-13T12:52:32;25.20;99.90
20839;DHT22;10580;51.092;6.828;2023-07-13T12:55:12;25.60;99.90
20839;DHT22;10580;51.092;6.828;2023-07-13T12:57:44;26.00;99.90
20839;DHT22;10580;51.092;6.828;2023-07-13T13:02:51;26.20;99.90
20839;DHT22;10580;51.092;6.828;2023-07-13T13:05:18;26.20;99.90
20839;DHT22;10580;51.092;6.828;2023-07-13T13:07:44;26.10;99.90
20839;DHT22;10580;51.092;6.828;2023-07-13T13:10:13;26.30;99.90
20839;DHT22;10580;51.092;6.828;2023-07-13T13:12:39;26.10;99.90
20839;DHT22;10580;51.092;6.828;2023-07-13T13:15:09;26.00;99.90
20839;DHT22;10580;51.092;6.828;2023-07-13T13:17:35;25.80;99.90
20839;DHT22;10580;51.092;6.828;2023-07-13T13:20:01;25.80;99.90
20839;DHT22;10580;51.092;6.828;2023-07-13T13:22:26;26.20;99.90
20839;DHT22;10580;51.092;6.828;2023-07-13T13:24:54;26.50;99.90
20839;DHT22;10580;51.092;6.828;2023-07-13T13:27:21;26.20;99.90
20839;DHT22;10580;51.092;6.828;2023-07-13T13:29:50;25.80;99.90
20839;DHT22;10580;51.092;6.828;2023-07-13T13:32:17;25.40;99.90
20839;DHT22;10580;51.092;6.828;2023-07-13T13:34:46;25.70;99.90
20839;DHT22;10580;51.092;6.828;2023-07-13T13:37:21;25.60;99.90
20839;DHT22;10580;51.092;6.828;2023-07-13T13:39:48;25.20;99.90
20839;DHT22;10580;51.092;6.828;2023-07-13T13:42:14;25.30;99.90
20839;DHT22;10580;51.092;6.828;2023-07-13T13:44:40;25.20;99.90
20839;DHT22;10580;51.092;6.828;2023-07-13T13:47:38;24.80;99.90
20839;DHT22;10580;51.092;6.828;2023-07-13T13:50:24;24.70;99.90
20839;DHT22;10580;51.092;6.828;2023-07-13T13:52:50;24.80;99.90
20839;DHT22;10580;51.092;6.828;2023-07-13T13:55:21;25.10;99.90
20839;DHT22;10580;51.092;6.828;2023-07-13T13:57:48;24.70;99.90
20839;DHT22;10580;51.092;6.828;2023-07-13T14:00:16;25.20;99.90
20839;DHT22;10580;51.092;6.828;2023-07-13T14:02:45;25.60;99.90
20839;DHT22;10580;51.092;6.828;2023-07-13T14:05:20;25.80;99.90
20839;DHT22;10580;51.092;6.828;2023-07-13T14:07:47;26.10;99.90
20839;DHT22;10580;51.092;6.828;2023-07-13T14:10:15;26.20;99.90
20839;DHT22;10580;51.092;6.828;2023-07-13T14:12:47;26.10;99.90
20839;DHT22;10580;51.092;6.828;2023-07-13T14:15:33;26.30;99.90
20839;DHT22;10580;51.092;6.828;2023-07-13T14:17:59;26.20;99.90
20839;DHT22;10580;51.092;6.828;2023-07-13T14:20:25;25.50;99.90
20839;DHT22;10580;51.092;6.828;2023-07-13T14:22:52;25.30;99.90
20839;DHT22;10580;51.092;6.828;2023-07-13T14:25:21;25.40;99.90
20839;DHT22;10580;51.092;6.828;2023-07-13T14:27:49;25.50;99.90
20839;DHT22;10580;51.092;6.828;2023-07-13T14:30:19;25.60;99.90
20839;DHT22;10580;51.092;6.828;2023-07-13T14:32:46;25.70;99.90
20839;DHT22;10580;51.092;6.828;2023-07-13T14:35:15;25.50;99.90
20839;DHT22;10580;51.092;6.828;2023-07-13T14:37:42;25.10;99.90
20839;DHT22;10580;51.092;6.828;2023-07-13T14:40:16;25.00;99.90
20839;DHT22;10580;51.092;6.828;2023-07-13T14:42:42;24.70;99.90
20839;DHT22;10580;51.092;6.828;2023-07-13T14:45:16;24.40;99.90
20839;DHT22;10580;51.092;6.828;2023-07-13T14:47:43;24.40;99.90
20839;DHT22;10580;51.092;6.828;2023-07-13T14:50:14;24.20;99.90
20839;DHT22;10580;51.092;6.828;2023-07-13T14:52:41;24.20;99.90
20839;DHT22;10580;51.092;6.828;2023-07-13T14:55:12;24.20;99.90
20839;DHT22;10580;51.092;6.828;2023-07-13T14:57:38;23.90;99.90
20839;DHT22;10580;51.092;6.828;2023-07-13T15:00:07;23.70;99.90
20839;DHT22;10580;51.092;6.828;2023-07-13T15:02:41;23.60;99.90
20839;DHT22;10580;51.092;6.828;2023-07-13T15:05:19;23.60;99.90
20839;DHT22;10580;51.092;6.828;2023-07-13T15:07:46;23.40;99.90
20839;DHT22;10580;51.092;6.828;2023-07-13T15:10:23;23.50;99.90
20839;DHT22;10580;51.092;6.828;2023-07-13T15:12:51;23.30;99.90
20839;DHT22;10580;51.092;6.828;2023-07-13T15:15:18;23.20;99.90
20839;DHT22;10580;51.092;6.828;2023-07-13T15:17:46;23.00;99.90
20839;DHT22;10580;51.092;6.828;2023-07-13T15:22:42;21.90;99.90
20839;DHT22;10580;51.092;6.828;2023-07-13T15:25:20;21.60;99.90
20839;DHT22;10580;51.092;6.828;2023-07-13T15:28:00;21.30;99.90
20839;DHT22;10580;51.092;6.828;2023-07-13T15:30:29;21.10;99.90
20839;DHT22;10580;51.092;6.828;2023-07-13T15:32:57;21.10;99.90
20839;DHT22;10580;51.092;6.828;2023-07-13T15:35:26;21.30;99.90
20839;DHT22;10580;51.092;6.828;2023-07-13T15:37:53;21.40;99.90
20839;DHT22;10580;51.092;6.828;2023-07-13T15:40:19;21.40;99.90
20839;DHT22;10580;51.092;6.828;2023-07-13T15:42:47;21.30;99.90
20839;DHT22;10580;51.092;6.828;2023-07-13T15:45:21;21.40;99.90
20839;DHT22;10580;51.092;6.828;2023-07-13T15:47:49;21.30;99.90
20839;DHT22;10580;51.092;6.828;2023-07-13T15:50:16;21.20;99.90
20839;DHT22;10580;51.092;6.828;2023-07-13T15:52:44;21.10;99.90
20839;DHT22;10580;51.092;6.828;2023-07-13T15:55:12;21.00;99.90
20839;DHT22;10580;51.092;6.828;2023-07-13T15:57:45;21.10;99.90
20839;DHT22;10580;51.092;6.828;2023-07-13T16:00:20;21.20;99.90
20839;DHT22;10580;51.092;6.828;2023-07-13T16:02:46;21.10;99.90
20839;DHT22;10580;51.092;6.828;2023-07-13T16:05:13;21.10;99.90
20839;DHT22;10580;51.092;6.828;2023-07-13T16:07:42;20.90;99.90
20839;DHT22;10580;51.092;6.828;2023-07-13T16:10:12;20.80;99.90
20839;DHT22;10580;51.092;6.828;2023-07-13T16:12:38;20.80;99.90
20839;DHT22;10580;51.092;6.828;2023-07-13T16:15:19;20.90;99.90
20839;DHT22;10580;51.092;6.828;2023-07-13T16:17:46;21.00;99.90
20839;DHT22;10580;51.092;6.828;2023-07-13T16:20:14;21.00;99.90
20839;DHT22;10580;51.092;6.828;2023-07-13T16:22:41;21.00;99.90
20839;DHT22;10580;51.092;6.828;2023-07-13T16:25:14;21.00;99.90
20839;DHT22;10580;51.092;6.828;2023-07-13T16:27:40;21.00;99.90
20839;DHT22;10580;51.092;6.828;2023-07-13T16:30:34;21.00;99.90